createdAt,value
2022-08-20T00:00:40.326Z,21.80
2022-08-20T00:03:19.244Z,21.80
2022-08-20T00:05:59.314Z,21.80
2022-08-20T00:08:34.953Z,21.80
2022-08-20T00:11:12.365Z,21.80
2022-08-20T00:13:50.357Z,21.90
2022-08-20T00:16:32.757Z,21.90
2022-08-20T00:19:09.217Z,21.90
2022-08-20T00:21:43.765Z,21.90
2022-08-20T00:24:18.264Z,21.90
2022-08-20T00:26:52.999Z,21.90
2022-08-20T00:29:27.569Z,21.90
2022-08-20T00:32:02.373Z,21.90
2022-08-20T00:34:36.724Z,21.90
2022-08-20T00:37:11.387Z,21.90
2022-08-20T00:39:45.907Z,21.90
2022-08-20T00:42:20.385Z,21.90
2022-08-20T00:44:54.791Z,21.90
2022-08-20T00:47:29.225Z,21.80
2022-08-20T00:50:06.400Z,21.80
2022-08-20T00:52:43.165Z,21.80
2022-08-20T00:55:31.541Z,21.80
2022-08-20T00:58:10.704Z,21.76
2022-08-20T01:00:48.914Z,21.70
2022-08-20T01:03:24.131Z,21.70
2022-08-20T01:05:58.891Z,21.70
2022-08-20T01:08:33.374Z,21.70
2022-08-20T01:11:10.507Z,21.70
2022-08-20T01:13:46.891Z,21.76
2022-08-20T01:16:29.133Z,21.80
2022-08-20T01:19:05.073Z,21.72
2022-08-20T01:22:00.514Z,21.70
2022-08-20T01:24:39.732Z,21.70
2022-08-20T01:27:14.147Z,21.70
2022-08-20T01:29:48.802Z,21.70
2022-08-20T01:32:23.330Z,21.66
2022-08-20T01:34:57.705Z,21.60
2022-08-20T01:37:33.157Z,21.60
2022-08-20T01:40:17.487Z,21.60
2022-08-20T01:42:58.794Z,21.50
2022-08-20T01:45:34.335Z,21.50
2022-08-20T01:48:09.613Z,21.50
2022-08-20T01:50:50.864Z,21.40
2022-08-20T01:53:34.477Z,21.40
2022-08-20T01:56:15.405Z,21.30
2022-08-20T01:58:59.143Z,21.30
2022-08-20T02:01:46.123Z,21.20
2022-08-20T02:04:22.186Z,21.14
2022-08-20T02:06:59.802Z,21.10
2022-08-20T02:09:37.710Z,21.10
2022-08-20T02:12:14.402Z,21.00
2022-08-20T02:14:53.635Z,21.00
2022-08-20T02:17:30.507Z,20.98
2022-08-20T02:20:11.124Z,20.90
2022-08-20T02:22:51.975Z,20.80
2022-08-20T02:25:31.672Z,20.80
2022-08-20T02:28:12.114Z,20.80
2022-08-20T02:30:51.048Z,20.70
2022-08-20T02:33:26.578Z,20.70
2022-08-20T02:36:00.940Z,20.60
2022-08-20T02:38:36.176Z,20.60
2022-08-20T02:41:12.409Z,20.60
2022-08-20T02:43:46.785Z,20.50
2022-08-20T02:46:21.235Z,20.44
2022-08-20T02:48:55.678Z,20.40
2022-08-20T02:51:30.792Z,20.40
2022-08-20T02:54:05.399Z,20.38
2022-08-20T02:56:40.576Z,20.30
2022-08-20T02:59:19.578Z,20.30
2022-08-20T03:01:59.322Z,20.30
2022-08-20T03:04:35.107Z,20.30
2022-08-20T03:07:11.289Z,20.30
2022-08-20T03:09:45.705Z,20.30
2022-08-20T03:12:20.098Z,20.20
2022-08-20T03:14:54.452Z,20.20
2022-08-20T03:17:29.862Z,20.20
2022-08-20T03:20:05.525Z,20.20
2022-08-20T03:22:40.354Z,20.20
2022-08-20T03:25:15.400Z,20.20
2022-08-20T03:27:53.161Z,20.20
2022-08-20T03:30:31.665Z,20.16
2022-08-20T03:33:06.650Z,20.10
2022-08-20T03:35:41.972Z,20.10
2022-08-20T03:38:17.966Z,20.10
2022-08-20T03:40:56.008Z,20.06
2022-08-20T03:43:30.616Z,20.00
2022-08-20T03:46:05.297Z,19.98
2022-08-20T03:49:00.124Z,19.90
2022-08-20T03:51:57.702Z,19.84
2022-08-20T03:54:31.654Z,19.80
2022-08-20T03:57:12.947Z,19.80
2022-08-20T03:59:54.647Z,19.80
2022-08-20T04:02:31.395Z,19.80
2022-08-20T04:05:06.932Z,19.80
2022-08-20T04:07:41.790Z,19.90
2022-08-20T04:10:16.487Z,19.90
2022-08-20T04:12:52.876Z,20.00
2022-08-20T04:15:28.140Z,20.00
2022-08-20T04:18:07.597Z,20.10
2022-08-20T04:20:44.644Z,20.20
2022-08-20T04:23:19.422Z,20.30
2022-08-20T04:25:56.656Z,20.32
2022-08-20T04:28:31.490Z,20.40
2022-08-20T04:31:05.987Z,20.50
2022-08-20T04:33:43.296Z,20.62
2022-08-20T04:36:17.904Z,20.72
2022-08-20T04:38:52.324Z,20.80
2022-08-20T04:41:26.951Z,20.90
2022-08-20T04:44:01.883Z,20.98
2022-08-20T04:46:36.338Z,21.00
2022-08-20T04:49:11.042Z,21.10
2022-08-20T04:51:45.478Z,21.16
2022-08-20T04:54:19.824Z,21.20
2022-08-20T04:56:54.313Z,21.30
2022-08-20T04:59:29.028Z,21.40
2022-08-20T05:02:03.483Z,21.50
2022-08-20T05:04:38.398Z,21.70
2022-08-20T05:07:14.777Z,21.90
2022-08-20T05:09:49.484Z,22.10
2022-08-20T05:12:23.929Z,22.30
2022-08-20T05:14:58.889Z,22.50
2022-08-20T05:17:33.358Z,22.70
2022-08-20T05:20:12.290Z,22.80
2022-08-20T05:23:13.320Z,23.00
2022-08-20T05:25:51.591Z,23.20
2022-08-20T05:28:30.391Z,23.30
2022-08-20T05:31:07.230Z,23.50
2022-08-20T05:33:42.304Z,23.68
2022-08-20T05:36:16.883Z,23.82
2022-08-20T05:38:54.094Z,24.14
2022-08-20T05:41:30.667Z,24.60
2022-08-20T05:44:05.835Z,25.12
2022-08-20T05:46:41.730Z,25.68
2022-08-20T05:49:20.126Z,26.18
2022-08-20T05:51:54.733Z,26.74
2022-08-20T05:54:32.705Z,27.24
2022-08-20T05:57:07.728Z,27.72
2022-08-20T05:59:42.083Z,28.20
2022-08-20T06:02:34.338Z,28.50
2022-08-20T06:05:11.164Z,28.58
2022-08-20T06:07:45.634Z,28.50
2022-08-20T06:10:20.317Z,28.30
2022-08-20T06:12:54.791Z,28.00
2022-08-20T06:15:29.594Z,27.70
2022-08-20T06:18:13.005Z,27.50
2022-08-20T06:21:02.265Z,27.36
2022-08-20T06:23:56.870Z,27.10
2022-08-20T06:26:34.630Z,26.90
2022-08-20T06:29:09.368Z,26.80
2022-08-20T06:31:43.750Z,26.74
2022-08-20T06:34:18.555Z,26.90
2022-08-20T06:36:53.108Z,27.32
2022-08-20T06:39:28.598Z,27.80
2022-08-20T06:42:03.107Z,28.00
2022-08-20T06:44:38.203Z,28.20
2022-08-20T06:47:14.811Z,28.38
2022-08-20T06:49:49.665Z,28.50
2022-08-20T06:52:35.061Z,28.72
2022-08-20T06:55:19.895Z,28.90
2022-08-20T06:58:05.225Z,29.10
2022-08-20T07:00:42.584Z,29.40
2022-08-20T07:03:17.076Z,29.80
2022-08-20T07:05:51.586Z,29.90
2022-08-20T07:08:26.065Z,29.90
2022-08-20T07:11:00.647Z,29.90
2022-08-20T07:13:36.863Z,29.80
2022-08-20T07:16:11.968Z,29.70
2022-08-20T07:18:46.635Z,29.60
2022-08-20T07:21:21.389Z,29.50
2022-08-20T07:23:55.983Z,29.50
2022-08-20T07:26:32.104Z,29.30
2022-08-20T07:29:06.877Z,29.30
2022-08-20T07:31:59.279Z,29.30
2022-08-20T07:34:33.741Z,29.10
2022-08-20T07:37:10.741Z,29.00
2022-08-20T07:39:45.319Z,29.00
2022-08-20T07:42:19.789Z,28.90
2022-08-20T07:44:54.107Z,28.74
2022-08-20T07:47:28.556Z,28.70
2022-08-20T07:50:03.080Z,28.70
2022-08-20T07:52:38.217Z,28.60
2022-08-20T07:55:16.800Z,28.74
2022-08-20T07:57:52.439Z,28.98
2022-08-20T08:00:29.241Z,29.20
2022-08-20T08:03:04.128Z,29.40
2022-08-20T08:05:42.266Z,29.50
2022-08-20T08:08:21.925Z,29.70
2022-08-20T08:11:16.617Z,30.16
2022-08-20T08:13:53.085Z,30.40
2022-08-20T08:16:31.183Z,30.80
2022-08-20T08:19:13.120Z,30.90
2022-08-20T08:21:49.738Z,31.00
2022-08-20T08:24:28.482Z,30.90
2022-08-20T08:27:05.238Z,30.80
2022-08-20T08:29:41.536Z,30.98
2022-08-20T08:32:17.523Z,30.90
2022-08-20T08:34:53.737Z,30.80
2022-08-20T08:37:30.981Z,30.68
2022-08-20T08:40:09.599Z,30.50
2022-08-20T08:42:55.723Z,30.40
2022-08-20T08:45:45.920Z,30.40
2022-08-20T08:48:29.023Z,30.40
2022-08-20T08:51:12.409Z,30.40
2022-08-20T08:53:54.893Z,30.50
2022-08-20T08:56:33.654Z,30.70
2022-08-20T08:59:12.248Z,30.70
2022-08-20T09:01:56.865Z,30.86
2022-08-20T09:04:41.690Z,30.76
2022-08-20T09:07:21.055Z,30.70
2022-08-20T09:09:57.396Z,30.70
2022-08-20T09:12:33.749Z,30.70
2022-08-20T09:15:12.195Z,30.74
2022-08-20T09:17:48.323Z,30.80
2022-08-20T09:20:26.940Z,30.70
2022-08-20T09:23:06.232Z,30.70
2022-08-20T09:25:42.200Z,30.80
2022-08-20T09:28:18.641Z,30.66
2022-08-20T09:30:54.793Z,30.60
2022-08-20T09:33:31.032Z,30.60
2022-08-20T09:36:29.043Z,30.64
2022-08-20T09:39:04.727Z,30.60
2022-08-20T09:41:41.483Z,30.50
2022-08-20T09:44:17.503Z,30.50
2022-08-20T09:46:53.523Z,30.60
2022-08-20T09:49:29.496Z,30.50
2022-08-20T09:52:08.329Z,30.42
2022-08-20T09:54:46.288Z,30.50
2022-08-20T09:57:23.583Z,30.50
2022-08-20T10:00:07.652Z,30.60
2022-08-20T10:02:49.156Z,30.60
2022-08-20T10:05:25.452Z,30.60
2022-08-20T10:08:06.009Z,30.50
2022-08-20T10:10:42.689Z,30.42
2022-08-20T10:13:18.795Z,30.42
2022-08-20T10:15:54.910Z,30.50
2022-08-20T10:18:31.532Z,30.50
2022-08-20T10:21:12.191Z,30.60
2022-08-20T10:23:49.069Z,30.70
2022-08-20T10:26:25.411Z,30.72
2022-08-20T10:29:01.801Z,30.70
2022-08-20T10:31:38.114Z,30.60
2022-08-20T10:34:14.220Z,30.54
2022-08-20T10:36:50.864Z,30.50
2022-08-20T10:39:26.852Z,30.50
2022-08-20T10:42:08.491Z,30.48
2022-08-20T10:44:44.727Z,30.50
2022-08-20T10:47:28.609Z,30.60
2022-08-20T10:50:11.133Z,30.50
2022-08-20T10:52:47.607Z,30.60
2022-08-20T10:55:24.129Z,30.68
2022-08-20T10:58:00.268Z,30.70
2022-08-20T11:00:37.609Z,30.70
2022-08-20T11:03:14.026Z,30.70
2022-08-20T11:05:50.289Z,30.60
2022-08-20T11:08:34.104Z,30.50
2022-08-20T11:11:12.658Z,30.40
2022-08-20T11:13:49.211Z,30.30
2022-08-20T11:16:25.277Z,30.40
2022-08-20T11:19:01.214Z,30.30
2022-08-20T11:21:37.937Z,30.30
2022-08-20T11:24:14.615Z,30.30
2022-08-20T11:26:53.467Z,30.30
2022-08-20T11:29:33.774Z,30.30
2022-08-20T11:32:11.817Z,30.30
2022-08-20T11:34:48.449Z,30.36
2022-08-20T11:37:28.789Z,30.40
2022-08-20T11:40:05.791Z,30.38
2022-08-20T11:43:10.700Z,30.30
2022-08-20T11:45:38.661Z,30.30
2022-08-20T11:48:15.113Z,30.30
2022-08-20T11:50:52.539Z,30.32
2022-08-20T11:53:28.704Z,30.40
2022-08-20T11:56:07.187Z,30.30
2022-08-20T11:58:49.608Z,30.30
2022-08-20T12:01:25.732Z,30.32
2022-08-20T12:04:02.099Z,30.40
2022-08-20T12:06:38.158Z,30.40
2022-08-20T12:09:14.130Z,30.40
2022-08-20T12:11:50.201Z,30.40
2022-08-20T12:14:28.307Z,30.30
2022-08-20T12:17:13.937Z,30.18
2022-08-20T12:19:51.463Z,30.00
2022-08-20T12:22:28.061Z,29.90
2022-08-20T12:25:05.361Z,29.80
2022-08-20T12:27:42.791Z,29.74
2022-08-20T12:30:25.211Z,29.70
2022-08-20T12:33:01.970Z,29.60
2022-08-20T12:35:39.121Z,29.50
2022-08-20T12:38:15.218Z,29.50
2022-08-20T12:40:51.294Z,29.50
2022-08-20T12:43:27.341Z,29.40
2022-08-20T12:46:03.523Z,29.40
2022-08-20T12:48:39.494Z,29.38
2022-08-20T12:51:15.419Z,29.34
2022-08-20T12:53:51.481Z,29.30
2022-08-20T12:56:27.473Z,29.30
2022-08-20T12:59:03.512Z,29.30
2022-08-20T13:01:39.799Z,29.30
2022-08-20T13:04:15.740Z,29.20
2022-08-20T13:06:52.411Z,29.10
2022-08-20T13:09:28.546Z,29.00
2022-08-20T13:12:05.679Z,28.90
2022-08-20T13:14:42.830Z,28.90
2022-08-20T13:17:31.822Z,28.80
2022-08-20T13:20:18.799Z,28.70
2022-08-20T13:22:54.951Z,28.68
2022-08-20T13:25:31.195Z,28.60
2022-08-20T13:28:08.801Z,28.50
2022-08-20T13:30:45.075Z,28.40
2022-08-20T13:33:21.740Z,28.38
2022-08-20T13:35:58.242Z,28.30
2022-08-20T13:38:34.386Z,28.20
2022-08-20T13:41:10.834Z,28.00
2022-08-20T13:43:46.883Z,27.56
2022-08-20T13:46:22.776Z,27.02
2022-08-20T13:48:58.889Z,26.60
2022-08-20T13:51:35.162Z,26.22
2022-08-20T13:54:11.503Z,25.88
2022-08-20T13:56:47.697Z,25.50
2022-08-20T13:59:24.359Z,25.20
2022-08-20T14:02:03.986Z,25.00
2022-08-20T14:04:44.082Z,24.80
2022-08-20T14:07:23.757Z,24.60
2022-08-20T14:10:06.578Z,24.40
2022-08-20T14:12:42.692Z,24.30
2022-08-20T14:15:19.305Z,24.20
2022-08-20T14:17:59.370Z,24.10
2022-08-20T14:20:38.801Z,24.10
2022-08-20T14:23:15.713Z,24.00
2022-08-20T14:25:53.097Z,24.00
2022-08-20T14:28:29.645Z,23.90
2022-08-20T14:31:05.577Z,23.88
2022-08-20T14:33:44.667Z,23.80
2022-08-20T14:36:21.016Z,23.80
2022-08-20T14:38:59.853Z,23.80
2022-08-20T14:41:35.765Z,23.80
2022-08-20T14:44:11.855Z,23.80
2022-08-20T14:46:47.833Z,23.80
2022-08-20T14:49:24.038Z,23.80
2022-08-20T14:52:00.132Z,23.90
2022-08-20T14:54:36.979Z,23.90
2022-08-20T14:57:15.407Z,24.00
2022-08-20T14:59:53.472Z,24.00
2022-08-20T15:02:31.429Z,24.10
2022-08-20T15:05:09.511Z,24.10
2022-08-20T15:07:49.194Z,24.20
2022-08-20T15:10:33.855Z,24.20
2022-08-20T15:13:10.450Z,24.20
2022-08-20T15:15:46.857Z,24.20
2022-08-20T15:18:25.294Z,24.20
2022-08-20T15:21:01.216Z,24.22
2022-08-20T15:23:37.291Z,24.30
2022-08-20T15:26:13.619Z,24.30
2022-08-20T15:28:49.645Z,24.30
2022-08-20T15:31:25.594Z,24.30
2022-08-20T15:34:02.540Z,24.30
2022-08-20T15:36:38.823Z,24.30
2022-08-20T15:39:17.567Z,24.30
2022-08-20T15:41:53.498Z,24.30
2022-08-20T15:44:29.659Z,24.24
2022-08-20T15:47:26.553Z,24.20
2022-08-20T15:50:14.213Z,24.16
2022-08-20T15:52:50.486Z,24.10
2022-08-20T15:55:27.293Z,24.00
2022-08-20T15:58:16.351Z,24.00
2022-08-20T16:01:23.806Z,23.90
2022-08-20T16:04:34.057Z,23.80
2022-08-20T16:07:20.215Z,23.70
2022-08-20T16:10:15.087Z,23.50
2022-08-20T16:13:01.182Z,23.40
2022-08-20T16:15:48.839Z,23.20
2022-08-20T16:18:29.275Z,23.10
2022-08-20T16:21:13.244Z,22.92
2022-08-20T16:23:50.595Z,22.80
2022-08-20T16:26:58.014Z,22.70
2022-08-20T16:29:57.492Z,22.60
2022-08-20T16:32:45.937Z,22.50
2022-08-20T16:35:38.982Z,22.40
2022-08-20T16:38:23.939Z,22.32
2022-08-20T16:41:12.462Z,22.30
2022-08-20T16:43:57.176Z,22.20
2022-08-20T16:46:43.433Z,22.12
2022-08-20T16:49:20.780Z,22.10
2022-08-20T16:51:58.379Z,22.10
2022-08-20T16:54:35.722Z,22.00
2022-08-20T16:57:17.158Z,21.96
2022-08-20T17:00:24.967Z,21.90
2022-08-20T17:03:05.943Z,21.90
2022-08-20T17:05:55.512Z,21.86
2022-08-20T17:08:41.880Z,21.80
2022-08-20T17:11:32.121Z,21.80
2022-08-20T17:14:19.981Z,21.70
2022-08-20T17:16:57.045Z,21.70
2022-08-20T17:19:35.374Z,21.60
2022-08-20T17:22:21.270Z,21.60
2022-08-20T17:24:58.104Z,21.52
2022-08-20T17:27:45.506Z,21.50
2022-08-20T17:30:38.714Z,21.50
2022-08-20T17:33:36.527Z,21.40
2022-08-20T17:36:26.531Z,21.30
2022-08-20T17:39:05.944Z,21.24
2022-08-20T17:41:50.876Z,21.20
2022-08-20T17:44:37.142Z,21.10
2022-08-20T17:47:18.958Z,21.00
2022-08-20T17:50:09.331Z,20.94
2022-08-20T17:52:52.350Z,20.90
2022-08-20T17:55:31.394Z,20.80
2022-08-20T17:58:15.188Z,20.80
2022-08-20T18:00:51.270Z,20.70
2022-08-20T18:03:29.545Z,20.70
2022-08-20T18:06:19.156Z,20.68
2022-08-20T18:09:08.072Z,20.60
2022-08-20T18:11:54.096Z,20.60
2022-08-20T18:14:59.699Z,20.60
2022-08-20T18:18:24.739Z,20.54
2022-08-20T18:21:41.728Z,20.50
2022-08-20T18:24:25.745Z,20.50
2022-08-20T18:27:11.685Z,20.40
2022-08-20T18:29:55.850Z,20.40
2022-08-20T18:32:38.635Z,20.40
2022-08-20T18:35:35.642Z,20.40
2022-08-20T18:38:38.644Z,20.32
2022-08-20T18:41:34.179Z,20.30
2022-08-20T18:44:28.314Z,20.30
2022-08-20T18:47:08.671Z,20.20
2022-08-20T18:49:45.142Z,20.20
2022-08-20T18:52:31.646Z,20.20
2022-08-20T18:55:13.088Z,20.20
2022-08-20T18:58:04.017Z,20.16
2022-08-20T19:00:48.544Z,20.10
2022-08-20T19:03:39.035Z,20.10
2022-08-20T19:06:37.263Z,20.10
2022-08-20T19:09:34.810Z,20.00
2022-08-20T19:13:38.318Z,20.00
2022-08-20T19:16:23.046Z,20.00
2022-08-20T19:19:00.436Z,19.90
2022-08-20T19:21:42.490Z,19.90
2022-08-20T19:24:28.440Z,19.90
2022-08-20T19:27:08.731Z,19.80
2022-08-20T19:29:50.355Z,19.80
2022-08-20T19:32:35.600Z,19.80
2022-08-20T19:35:20.017Z,19.80
2022-08-20T19:37:56.004Z,19.70
2022-08-20T19:40:40.085Z,19.70
2022-08-20T19:43:22.438Z,19.70
2022-08-20T19:46:01.235Z,19.60
2022-08-20T19:48:58.694Z,19.60
2022-08-20T19:51:54.942Z,19.60
2022-08-20T19:54:33.293Z,19.60
2022-08-20T19:57:14.011Z,19.50
2022-08-20T20:00:08.384Z,19.50
2022-08-20T20:02:44.714Z,19.50
2022-08-20T20:05:20.713Z,19.50
2022-08-20T20:08:05.909Z,19.50
2022-08-20T20:10:43.053Z,19.50
2022-08-20T20:13:23.093Z,19.50
2022-08-20T20:16:04.322Z,19.46
2022-08-20T20:18:44.387Z,19.40
2022-08-20T20:21:39.739Z,19.40
2022-08-20T20:24:26.800Z,19.40
2022-08-20T20:27:04.088Z,19.40
2022-08-20T20:29:42.343Z,19.40
2022-08-20T20:32:25.382Z,19.40
2022-08-20T20:35:05.853Z,19.40
2022-08-20T20:37:50.278Z,19.40
2022-08-20T20:40:36.076Z,19.40
2022-08-20T20:43:26.197Z,19.40
2022-08-20T20:46:17.250Z,19.40
2022-08-20T20:48:57.899Z,19.40
2022-08-20T20:51:40.182Z,19.40
2022-08-20T20:54:40.624Z,19.40
2022-08-20T20:57:38.773Z,19.42
2022-08-20T21:00:21.225Z,19.48
2022-08-20T21:02:57.949Z,19.50
2022-08-20T21:05:40.051Z,19.50
2022-08-20T21:08:17.268Z,19.50
2022-08-20T21:10:53.240Z,19.50
2022-08-20T21:13:29.258Z,19.50
2022-08-20T21:16:07.132Z,19.50
2022-08-20T21:18:43.019Z,19.60
2022-08-20T21:21:18.890Z,19.60
2022-08-20T21:23:54.903Z,19.60
2022-08-20T21:26:32.502Z,19.60
2022-08-20T21:29:12.454Z,19.60
2022-08-20T21:31:50.094Z,19.50
2022-08-20T21:34:27.167Z,19.50
2022-08-20T21:37:03.617Z,19.50
2022-08-20T21:39:39.623Z,19.50
2022-08-20T21:42:29.200Z,19.50
2022-08-20T21:45:08.313Z,19.44
2022-08-20T21:47:44.970Z,19.46
2022-08-20T21:50:26.714Z,19.40
2022-08-20T21:53:02.767Z,19.40
2022-08-20T21:55:51.031Z,19.40
2022-08-20T21:58:28.075Z,19.40
2022-08-20T22:01:07.912Z,19.40
2022-08-20T22:03:45.280Z,19.40
2022-08-20T22:06:24.624Z,19.40
2022-08-20T22:09:00.780Z,19.40
2022-08-20T22:11:36.977Z,19.32
2022-08-20T22:14:16.411Z,19.30
2022-08-20T22:16:52.856Z,19.30
2022-08-20T22:19:29.266Z,19.30
2022-08-20T22:22:05.898Z,19.30
2022-08-20T22:24:42.651Z,19.30
2022-08-20T22:27:18.903Z,19.30
2022-08-20T22:29:56.021Z,19.28
2022-08-20T22:32:33.558Z,19.20
2022-08-20T22:35:28.734Z,19.20
2022-08-20T22:38:05.206Z,19.20
2022-08-20T22:40:41.101Z,19.20
2022-08-20T22:43:18.285Z,19.20
2022-08-20T22:45:59.352Z,19.14
2022-08-20T22:48:35.528Z,19.10
2022-08-20T22:51:17.226Z,19.10
2022-08-20T22:53:54.270Z,19.10
2022-08-20T22:56:30.737Z,19.02
2022-08-20T22:59:07.609Z,19.00
2022-08-20T23:01:44.183Z,19.00
2022-08-20T23:04:29.862Z,19.00
2022-08-20T23:07:12.590Z,18.98
2022-08-20T23:09:48.931Z,19.00
2022-08-20T23:12:25.002Z,18.90
2022-08-20T23:15:01.023Z,18.90
2022-08-20T23:17:38.690Z,18.90
2022-08-20T23:20:18.921Z,18.90
2022-08-20T23:22:55.272Z,18.90
2022-08-20T23:25:31.594Z,18.90
2022-08-20T23:28:08.241Z,18.90
2022-08-20T23:30:44.490Z,18.82
2022-08-20T23:33:21.217Z,18.80
2022-08-20T23:35:57.568Z,18.80
2022-08-20T23:38:33.670Z,18.80
2022-08-20T23:41:09.825Z,18.80
2022-08-20T23:43:45.872Z,18.80
2022-08-20T23:46:25.758Z,18.74
2022-08-20T23:49:01.858Z,18.70
2022-08-20T23:51:39.188Z,18.70
2022-08-20T23:54:15.555Z,18.70
2022-08-20T23:56:51.668Z,18.70
2022-08-20T23:59:32.974Z,18.70
